Island Explorer — WDH8636 — position and weather

sailwx.info

Track history (hours):
 
Tides and Currents Weather Stations Pressure Air Temp Water Temp Dewpoint Dewpoint Depression Visibility Wind Speed Wind Dir Waves Ship Positions

Island Explorer

Owner: Stevens Towing Co., Inc, Yonges Island, SC. More information available from US FCC via Universal Licensing System and Coast Guard Vessel Documentation Center.

Last reported at 2018-Feb-25 00:54 UTC. Time now 2018-Feb-25 01:37 UTC.
Position N 36°43' W 076°13'.

Length 19 m.

MMSI: 367660050.

Date/timePositionNaut miles runAvg speedWind from/ knotsBaromVisibWave heightAir tempDewpointWater temp
2018-Feb-25 00:54N 36°43' W 076°13'2 3.9
2018-Feb-25 00:27N 36°43' W 076°15'0 0.3
2018-Feb-25 00:01N 36°43' W 076°15'2 4.0
2018-Feb-24 23:30N 36°44' W 076°17'2 4.8
2018-Feb-24 23:01N 36°46' W 076°18'2 3.1
2018-Feb-24 22:31N 36°48' W 076°18'3 5.9
2018-Feb-24 22:00N 36°51' W 076°18'3 6.1
2018-Feb-24 21:30N 36°53' W 076°20'3 6.1
2018-Feb-24 20:57N 36°57' W 076°20'3 6.2
2018-Feb-24 20:26N 36°60' W 076°18'3 6.6
2018-Feb-24 20:01N 37°01' W 076°15'3 5.5
2018-Feb-24 19:30N 37°03' W 076°14'3 6.0
2018-Feb-24 19:00N 37°06' W 076°13'3 6.5
2018-Feb-24 18:30N 37°10' W 076°12'91 6.3
2018-Feb-24 04:08N 38°40' W 076°28'2 6.6
2018-Feb-24 03:52N 38°42' W 076°28'2 6.5
2018-Feb-24 03:31N 38°44' W 076°27'3 6.4
2018-Feb-24 02:58N 38°47' W 076°27'3 6.4
2018-Feb-24 02:31N 38°50' W 076°26'3 6.4
2018-Feb-24 02:00N 38°54' W 076°25'3 6.4
2018-Feb-24 01:30N 38°57' W 076°24'4 7.1
2018-Feb-24 01:01N 38°60' W 076°23'3 6.7
2018-Feb-24 00:31N 39°03' W 076°23'4 6.7
2018-Feb-23 23:56N 39°07' W 076°24'3 6.9
2018-Feb-23 23:30N 39°10' W 076°25'3 6.3
2018-Feb-23 23:00N 39°11' W 076°29'3 6.4
2018-Feb-23 22:29N 39°13' W 076°32'2 4.4
2018-Feb-23 22:00N 39°12' W 076°35'0 0.2
2018-Feb-23 21:30N 39°12' W 076°35'0 0.0
2018-Feb-23 20:57N 39°12' W 076°35'0 0.0
2018-Feb-23 20:30N 39°12' W 076°35'0 0.0
2018-Feb-23 19:56N 39°12' W 076°35'0 0.0
2018-Feb-23 19:30N 39°12' W 076°35'0 0.0
2018-Feb-23 19:00N 39°12' W 076°35'0 0.0
2018-Feb-23 18:30N 39°12' W 076°35'0 0.0
2018-Feb-23 18:00N 39°12' W 076°35'0 0.0
2018-Feb-23 17:27N 39°12' W 076°35'0 0.0
2018-Feb-23 16:58N 39°12' W 076°35'0 0.0
2018-Feb-23 16:30N 39°12' W 076°35'0 0.0
2018-Feb-23 16:00N 39°12' W 076°35'0 0.0
2018-Feb-23 15:31N 39°12' W 076°35'1 1.5
2018-Feb-23 14:35N 39°14' W 076°34'0 0.0
2018-Feb-23 14:06N 39°14' W 076°34'0 0.0
2018-Feb-23 14:00N 39°14' W 076°34'0 0.0
2018-Feb-23 13:29N 39°14' W 076°34'0 0.8
2018-Feb-23 13:00N 39°13' W 076°34'1 2.2
2018-Feb-23 12:31N 39°12' W 076°35'0 0.0
2018-Feb-23 12:00N 39°12' W 076°35'0 0.0
2018-Feb-23 11:30N 39°12' W 076°35'0 0.0
2018-Feb-23 11:00N 39°12' W 076°35'0 0.0
2018-Feb-23 10:30N 39°12' W 076°35'0 0.0
2018-Feb-23 10:00N 39°12' W 076°35'0 0.0
2018-Feb-23 09:30N 39°12' W 076°35'0 0.0
2018-Feb-23 09:01N 39°12' W 076°35'0 0.0
2018-Feb-23 08:31N 39°12' W 076°35'0 0.0
2018-Feb-23 08:01N 39°12' W 076°35'0 0.0
2018-Feb-23 07:31N 39°12' W 076°35'0 0.0
2018-Feb-23 07:00N 39°12' W 076°35'0 0.0
2018-Feb-23 06:31N 39°12' W 076°35'0 0.0
2018-Feb-23 06:00N 39°12' W 076°35'0 0.0
2018-Feb-23 05:31N 39°12' W 076°35'0 0.0
2018-Feb-23 05:00N 39°12' W 076°35'0 0.0
2018-Feb-23 04:31N 39°12' W 076°35'0 0.0
2018-Feb-23 04:00N 39°12' W 076°35'0 0.0
2018-Feb-23 03:30N 39°12' W 076°35'0 0.0
2018-Feb-23 03:01N 39°12' W 076°35'1 1.4
2018-Feb-23 02:30N 39°13' W 076°35'3 5.8
2018-Feb-23 02:00N 39°16' W 076°35'1 2.7
2018-Feb-23 01:30N 39°17' W 076°36'0 0.0
2018-Feb-23 01:00N 39°17' W 076°36'0 0.0
2018-Feb-23 00:30N 39°17' W 076°36'0 0.0
2018-Feb-23 00:00N 39°17' W 076°36'0 0.3
2018-Feb-22 23:30N 39°17' W 076°35'4 7.2
2018-Feb-22 23:00N 39°13' W 076°33'2 3.3
2018-Feb-22 22:30N 39°12' W 076°35'2 4.7
2018-Feb-22 22:00N 39°13' W 076°32'4 7.4
2018-Feb-22 21:29N 39°11' W 076°28'4 7.0
2018-Feb-22 20:59N 39°09' W 076°25'3 6.6
2018-Feb-22 20:30N 39°06' W 076°24'3 7.0
2018-Feb-22 20:00N 39°02' W 076°23'3 6.5
2018-Feb-22 19:30N 38°59' W 076°23'3 6.7
2018-Feb-22 19:00N 38°56' W 076°24'3 6.8
2018-Feb-22 18:30N 38°53' W 076°25'3 6.9
2018-Feb-22 18:00N 38°49' W 076°26'4 7.3
2018-Feb-22 17:28N 38°45' W 076°27'95 7.9
2018-Feb-22 05:22N 37°11' W 076°12'4 8.1
2018-Feb-22 04:52N 37°07' W 076°13'3 7.8
2018-Feb-22 04:27N 37°04' W 076°14'4 7.1
2018-Feb-22 03:53N 37°00' W 076°16'3 6.7
2018-Feb-22 03:27N 36°59' W 076°19'3 7.0
2018-Feb-22 03:00N 36°56' W 076°20'4 7.1
2018-Feb-22 02:30N 36°52' W 076°20'4 7.1
2018-Feb-22 02:00N 36°49' W 076°17'3 5.4
2018-Feb-22 01:30N 36°47' W 076°18'2 3.2
2018-Feb-22 01:00N 36°45' W 076°18'3 5.5
2018-Feb-22 00:30N 36°43' W 076°15'1 1.6
2018-Feb-22 00:00N 36°43' W 076°14'0 0.4
2018-Feb-21 23:30N 36°43' W 076°14'6 5.6
2018-Feb-21 22:30N 36°43' W 076°07'4 5.6
2018-Feb-21 21:49N 36°40' W 076°04'  
2018-Feb-18 05:14N 35°08' W 076°30'1 5.1
2018-Feb-18 04:57N 35°07' W 076°31'11 5.3
2018-Feb-18 02:58N 34°60' W 076°41'2 4.3
2018-Feb-18 02:28N 34°58' W 076°41'2 5.0
2018-Feb-18 02:00N 34°56' W 076°39'3 5.0
2018-Feb-18 01:30N 34°54' W 076°41'3 5.2
2018-Feb-18 01:00N 34°51' W 076°41'3 5.1
2018-Feb-18 00:30N 34°48' W 076°41'2 4.9
2018-Feb-18 00:00N 34°46' W 076°41'3 5.2
2018-Feb-17 23:30N 34°44' W 076°42'1 1.3
2018-Feb-17 23:00N 34°43' W 076°42'0 0.4
2018-Feb-17 22:30N 34°43' W 076°42'0 0.0
2018-Feb-17 22:00N 34°43' W 076°42'0 0.0
2018-Feb-17 21:30N 34°43' W 076°42'0 0.0
2018-Feb-17 21:00N 34°43' W 076°42'0 0.0
2018-Feb-17 20:30N 34°43' W 076°42'0 0.0
2018-Feb-17 20:00N 34°43' W 076°42'0 0.0
2018-Feb-17 19:30N 34°43' W 076°42'1 1.1
2018-Feb-17 18:59N 34°43' W 076°42'0 0.4
2018-Feb-17 18:30N 34°43' W 076°42'0 0.0
2018-Feb-17 18:00N 34°43' W 076°42'1 1.1
2018-Feb-17 17:30N 34°44' W 076°42'2 4.6
2018-Feb-17 17:00N 34°46' W 076°41'3 6.9
2018-Feb-17 16:30N 34°49' W 076°41'3 6.4
2018-Feb-17 16:00N 34°52' W 076°42'3 5.5
2018-Feb-17 15:30N 34°55' W 076°40'3 5.6
2018-Feb-17 14:59N 34°57' W 076°41'  
2018-Feb-15 02:56N 35°08' W 076°30'2 5.7
2018-Feb-15 02:30N 35°06' W 076°32'  
Track history (hours):
 
Tides and Currents Weather Stations Pressure Air Temp Water Temp Dewpoint Dewpoint Depression Visibility Wind Speed Wind Dir Waves Ship Positions

Island Explorer

Owner: Stevens Towing Co., Inc, Yonges Island, SC. More information available from US FCC via Universal Licensing System and Coast Guard Vessel Documentation Center.

Last reported at 2018-Feb-25 00:54 UTC. Time now 2018-Feb-25 01:37 UTC.
Position N 36°43' W 076°13'.

Length 19 m.

MMSI: 367660050.

Date/timePositionNaut miles runAvg speedWind from/ knotsBaromVisibWave heightAir tempDewpointWater temp
2018-Feb-25 00:54N 36°43' W 076°13'2 3.9
2018-Feb-25 00:27N 36°43' W 076°15'0 0.3
2018-Feb-25 00:01N 36°43' W 076°15'2 4.0
2018-Feb-24 23:30N 36°44' W 076°17'2 4.8
2018-Feb-24 23:01N 36°46' W 076°18'2 3.1
2018-Feb-24 22:31N 36°48' W 076°18'3 5.9
2018-Feb-24 22:00N 36°51' W 076°18'3 6.1
2018-Feb-24 21:30N 36°53' W 076°20'3 6.1
2018-Feb-24 20:57N 36°57' W 076°20'3 6.2
2018-Feb-24 20:26N 36°60' W 076°18'3 6.6
2018-Feb-24 20:01N 37°01' W 076°15'3 5.5
2018-Feb-24 19:30N 37°03' W 076°14'3 6.0
2018-Feb-24 19:00N 37°06' W 076°13'3 6.5
2018-Feb-24 18:30N 37°10' W 076°12'91 6.3
2018-Feb-24 04:08N 38°40' W 076°28'2 6.6
2018-Feb-24 03:52N 38°42' W 076°28'2 6.5
2018-Feb-24 03:31N 38°44' W 076°27'3 6.4
2018-Feb-24 02:58N 38°47' W 076°27'3 6.4
2018-Feb-24 02:31N 38°50' W 076°26'3 6.4
2018-Feb-24 02:00N 38°54' W 076°25'3 6.4
2018-Feb-24 01:30N 38°57' W 076°24'4 7.1
2018-Feb-24 01:01N 38°60' W 076°23'3 6.7
2018-Feb-24 00:31N 39°03' W 076°23'4 6.7
2018-Feb-23 23:56N 39°07' W 076°24'3 6.9
2018-Feb-23 23:30N 39°10' W 076°25'3 6.3
2018-Feb-23 23:00N 39°11' W 076°29'3 6.4
2018-Feb-23 22:29N 39°13' W 076°32'2 4.4
2018-Feb-23 22:00N 39°12' W 076°35'0 0.2
2018-Feb-23 21:30N 39°12' W 076°35'0 0.0
2018-Feb-23 20:57N 39°12' W 076°35'0 0.0
2018-Feb-23 20:30N 39°12' W 076°35'0 0.0
2018-Feb-23 19:56N 39°12' W 076°35'0 0.0
2018-Feb-23 19:30N 39°12' W 076°35'0 0.0
2018-Feb-23 19:00N 39°12' W 076°35'0 0.0
2018-Feb-23 18:30N 39°12' W 076°35'0 0.0
2018-Feb-23 18:00N 39°12' W 076°35'0 0.0
2018-Feb-23 17:27N 39°12' W 076°35'0 0.0
2018-Feb-23 16:58N 39°12' W 076°35'0 0.0
2018-Feb-23 16:30N 39°12' W 076°35'0 0.0
2018-Feb-23 16:00N 39°12' W 076°35'0 0.0
2018-Feb-23 15:31N 39°12' W 076°35'1 1.5
2018-Feb-23 14:35N 39°14' W 076°34'0 0.0
2018-Feb-23 14:06N 39°14' W 076°34'0 0.0
2018-Feb-23 14:00N 39°14' W 076°34'0 0.0
2018-Feb-23 13:29N 39°14' W 076°34'0 0.8
2018-Feb-23 13:00N 39°13' W 076°34'1 2.2
2018-Feb-23 12:31N 39°12' W 076°35'0 0.0
2018-Feb-23 12:00N 39°12' W 076°35'0 0.0
2018-Feb-23 11:30N 39°12' W 076°35'0 0.0
2018-Feb-23 11:00N 39°12' W 076°35'0 0.0
2018-Feb-23 10:30N 39°12' W 076°35'0 0.0
2018-Feb-23 10:00N 39°12' W 076°35'0 0.0
2018-Feb-23 09:30N 39°12' W 076°35'0 0.0
2018-Feb-23 09:01N 39°12' W 076°35'0 0.0
2018-Feb-23 08:31N 39°12' W 076°35'0 0.0
2018-Feb-23 08:01N 39°12' W 076°35'0 0.0
2018-Feb-23 07:31N 39°12' W 076°35'0 0.0
2018-Feb-23 07:00N 39°12' W 076°35'0 0.0
2018-Feb-23 06:31N 39°12' W 076°35'0 0.0
2018-Feb-23 06:00N 39°12' W 076°35'0 0.0
2018-Feb-23 05:31N 39°12' W 076°35'0 0.0
2018-Feb-23 05:00N 39°12' W 076°35'0 0.0
2018-Feb-23 04:31N 39°12' W 076°35'0 0.0
2018-Feb-23 04:00N 39°12' W 076°35'0 0.0
2018-Feb-23 03:30N 39°12' W 076°35'0 0.0
2018-Feb-23 03:01N 39°12' W 076°35'1 1.4
2018-Feb-23 02:30N 39°13' W 076°35'3 5.8
2018-Feb-23 02:00N 39°16' W 076°35'1 2.7
2018-Feb-23 01:30N 39°17' W 076°36'0 0.0
2018-Feb-23 01:00N 39°17' W 076°36'0 0.0
2018-Feb-23 00:30N 39°17' W 076°36'0 0.0
2018-Feb-23 00:00N 39°17' W 076°36'0 0.3
2018-Feb-22 23:30N 39°17' W 076°35'4 7.2
2018-Feb-22 23:00N 39°13' W 076°33'2 3.3
2018-Feb-22 22:30N 39°12' W 076°35'2 4.7
2018-Feb-22 22:00N 39°13' W 076°32'4 7.4
2018-Feb-22 21:29N 39°11' W 076°28'4 7.0
2018-Feb-22 20:59N 39°09' W 076°25'3 6.6
2018-Feb-22 20:30N 39°06' W 076°24'3 7.0
2018-Feb-22 20:00N 39°02' W 076°23'3 6.5
2018-Feb-22 19:30N 38°59' W 076°23'3 6.7
2018-Feb-22 19:00N 38°56' W 076°24'3 6.8
2018-Feb-22 18:30N 38°53' W 076°25'3 6.9
2018-Feb-22 18:00N 38°49' W 076°26'4 7.3
2018-Feb-22 17:28N 38°45' W 076°27'95 7.9
2018-Feb-22 05:22N 37°11' W 076°12'4 8.1
2018-Feb-22 04:52N 37°07' W 076°13'3 7.8
2018-Feb-22 04:27N 37°04' W 076°14'4 7.1
2018-Feb-22 03:53N 37°00' W 076°16'3 6.7
2018-Feb-22 03:27N 36°59' W 076°19'3 7.0
2018-Feb-22 03:00N 36°56' W 076°20'4 7.1
2018-Feb-22 02:30N 36°52' W 076°20'4 7.1
2018-Feb-22 02:00N 36°49' W 076°17'3 5.4
2018-Feb-22 01:30N 36°47' W 076°18'2 3.2
2018-Feb-22 01:00N 36°45' W 076°18'3 5.5
2018-Feb-22 00:30N 36°43' W 076°15'1 1.6
2018-Feb-22 00:00N 36°43' W 076°14'0 0.4
2018-Feb-21 23:30N 36°43' W 076°14'6 5.6
2018-Feb-21 22:30N 36°43' W 076°07'4 5.6
2018-Feb-21 21:49N 36°40' W 076°04'  
2018-Feb-18 05:14N 35°08' W 076°30'1 5.1
2018-Feb-18 04:57N 35°07' W 076°31'11 5.3
2018-Feb-18 02:58N 34°60' W 076°41'2 4.3
2018-Feb-18 02:28N 34°58' W 076°41'2 5.0
2018-Feb-18 02:00N 34°56' W 076°39'3 5.0
2018-Feb-18 01:30N 34°54' W 076°41'3 5.2
2018-Feb-18 01:00N 34°51' W 076°41'3 5.1
2018-Feb-18 00:30N 34°48' W 076°41'2 4.9
2018-Feb-18 00:00N 34°46' W 076°41'3 5.2
2018-Feb-17 23:30N 34°44' W 076°42'1 1.3
2018-Feb-17 23:00N 34°43' W 076°42'0 0.4
2018-Feb-17 22:30N 34°43' W 076°42'0 0.0
2018-Feb-17 22:00N 34°43' W 076°42'0 0.0
2018-Feb-17 21:30N 34°43' W 076°42'0 0.0
2018-Feb-17 21:00N 34°43' W 076°42'0 0.0
2018-Feb-17 20:30N 34°43' W 076°42'0 0.0
2018-Feb-17 20:00N 34°43' W 076°42'0 0.0
2018-Feb-17 19:30N 34°43' W 076°42'1 1.1
2018-Feb-17 18:59N 34°43' W 076°42'0 0.4
2018-Feb-17 18:30N 34°43' W 076°42'0 0.0
2018-Feb-17 18:00N 34°43' W 076°42'1 1.1
2018-Feb-17 17:30N 34°44' W 076°42'2 4.6
2018-Feb-17 17:00N 34°46' W 076°41'3 6.9
2018-Feb-17 16:30N 34°49' W 076°41'3 6.4
2018-Feb-17 16:00N 34°52' W 076°42'3 5.5
2018-Feb-17 15:30N 34°55' W 076°40'3 5.6
2018-Feb-17 14:59N 34°57' W 076°41'  
2018-Feb-15 02:56N 35°08' W 076°30'2 5.7
2018-Feb-15 02:30N 35°06' W 076°32'  

Dump ship's entire track history